»·PEaware :: WAT169 KJAC-KLAS

WAT169 :: KJAC-KLAS

FLIGHT INFORMATION

Flight Status: Arrived
Operator:
Walker Air Transport
More flights by this operator :: More flights under this callsign
Pilot: Marty P. (27464)
Aircraft: BOEING 737-800
(B738)
More flights by this aircraft type
Origin: KJAC Jackson Hole
United States
Destination: KLAS McCarran Intl
United States
More flights between these airports :: More routes between these airports
Route: ALPIN2 KICNE FFU J9 MLF MPIRE SITEE4
File this flight plan on PilotEdge
Remarks:
Altitude:
(Current/Filed)
38,000ft
Speed:
(Current/Filed)
480kts
Departed: 21-Feb-21 08:16 AM
Arrived: 21-Feb-21 09:31 AM
Distance/Time
Traveled:
495nm/1:15
Distance/Time
To Go:
Arrived

Flight Plot

Page will automatically refresh every two minutes.

Flight plan parsing failed; only flown route is shown


Map Options




Map Legend


Flown Route
Filed Route
Departure Airport
Arrival Airport
Navaid (VOR, NDB)
Fix

Horizontal Profiles

Position Reports

Time Latitude Longitude Heading Altitude Ground
Speed
21-Feb-21 07:29 43.601883 -110.737854 110 6426ft 0kts
21-Feb-21 07:30 43.601883 -110.737854 110 6426ft 0kts
21-Feb-21 07:31 43.601883 -110.737854 110 6426ft 0kts
21-Feb-21 07:32 43.601883 -110.737854 110 6426ft 0kts
21-Feb-21 07:33 43.601883 -110.737854 110 6426ft 0kts
21-Feb-21 07:34 43.601883 -110.737854 110 6426ft 0kts
21-Feb-21 07:35 43.601883 -110.737854 110 6426ft 0kts
21-Feb-21 07:36 43.601883 -110.737854 110 6426ft 0kts
21-Feb-21 07:37 43.601883 -110.737854 110 6426ft 0kts
21-Feb-21 07:38 43.601883 -110.737854 110 6426ft 0kts
21-Feb-21 07:39 43.601883 -110.737854 110 6426ft 0kts
21-Feb-21 07:40 43.601883 -110.737854 110 6426ft 0kts
21-Feb-21 07:41 43.601883 -110.737854 110 6426ft 0kts
21-Feb-21 07:42 43.601883 -110.737854 110 6426ft 0kts
21-Feb-21 07:43 43.601883 -110.737854 110 6426ft 0kts
21-Feb-21 07:44 43.601883 -110.737854 110 6426ft 0kts
21-Feb-21 07:45 43.601883 -110.737854 110 6426ft 0kts
21-Feb-21 07:46 43.601883 -110.737854 110 6426ft 0kts
21-Feb-21 07:46 43.601883 -110.737854 110 6426ft 0kts
21-Feb-21 07:47 43.601883 -110.737854 110 6426ft 0kts
21-Feb-21 07:49 43.601883 -110.737854 110 6426ft 0kts
21-Feb-21 07:50 43.601883 -110.737854 110 6426ft 0kts
21-Feb-21 07:51 43.601883 -110.737855 110 6426ft 0kts
21-Feb-21 07:51 43.601883 -110.737855 110 6426ft 0kts
21-Feb-21 07:52 43.601883 -110.737855 110 6426ft 0kts
21-Feb-21 07:53 43.601883 -110.737855 110 6426ft 0kts
21-Feb-21 07:55 43.601883 -110.737855 110 6426ft 0kts
21-Feb-21 07:56 43.601883 -110.737855 110 6426ft 0kts
21-Feb-21 07:56 43.601883 -110.737855 110 6426ft 0kts
21-Feb-21 07:57 43.601883 -110.737855 110 6426ft 0kts
21-Feb-21 07:58 43.601883 -110.737855 110 6426ft 0kts
21-Feb-21 07:59 43.601883 -110.737855 110 6426ft 0kts
21-Feb-21 08:01 43.601883 -110.737855 110 6426ft 0kts
21-Feb-21 08:01 43.601883 -110.737855 110 6426ft 0kts
21-Feb-21 08:02 43.601883 -110.737855 110 6426ft 0kts
21-Feb-21 08:03 43.601883 -110.737855 110 6426ft 0kts
21-Feb-21 08:05 43.601883 -110.737855 110 6426ft 0kts
21-Feb-21 08:05 43.601883 -110.737855 110 6426ft 0kts
21-Feb-21 08:06 43.601987 -110.738379 83 6425ft 2kts
21-Feb-21 08:07 43.601690 -110.738924 17 6424ft 1kts
21-Feb-21 08:08 43.601646 -110.738943 18 6424ft 0kts
21-Feb-21 08:09 43.601646 -110.738943 18 6424ft 0kts
21-Feb-21 08:10 43.601855 -110.738844 19 6425ft 3kts
21-Feb-21 08:11 43.604260 -110.737657 19 6431ft 14kts
21-Feb-21 08:12 43.607970 -110.735848 19 6437ft 11kts
21-Feb-21 08:13 43.612391 -110.733694 19 6445ft 20kts
21-Feb-21 08:14 43.615297 -110.733807 255 6450ft 5kts
21-Feb-21 08:15 43.595736 -110.743540 198 6631ft 169kts
21-Feb-21 08:16 43.546532 -110.776716 206 8621ft 239kts
21-Feb-21 08:17 43.483108 -110.819357 210 11860ft 273kts
21-Feb-21 08:18 43.411556 -110.865884 211 14878ft 298kts
21-Feb-21 08:19 43.327330 -110.920143 209 15978ft 384kts
21-Feb-21 08:20 43.224948 -110.982928 204 18331ft 419kts
21-Feb-21 08:21 43.109689 -111.024934 198 20654ft 444kts
21-Feb-21 08:22 42.987169 -111.066388 197 22787ft 462kts
21-Feb-21 08:23 42.860272 -111.109099 197 24648ft 479kts
21-Feb-21 08:24 42.728835 -111.153122 197 26226ft 496kts
21-Feb-21 08:25 42.592541 -111.198615 197 27671ft 512kts
21-Feb-21 08:26 42.452316 -111.245196 196 28980ft 528kts
21-Feb-21 08:27 42.309001 -111.292591 196 30303ft 539kts
21-Feb-21 08:28 42.162974 -111.340619 196 31885ft 540kts
21-Feb-21 08:29 42.017302 -111.388313 196 33334ft 541kts
21-Feb-21 08:30 41.872734 -111.435415 196 35294ft 526kts
21-Feb-21 08:31 41.726736 -111.482862 196 33978ft 564kts
21-Feb-21 08:32 41.576826 -111.531212 196 32370ft 547kts
21-Feb-21 08:33 41.426704 -111.579472 195 32421ft 555kts
21-Feb-21 08:34 41.276121 -111.627642 195 32328ft 558kts
21-Feb-21 08:35 41.125376 -111.675756 195 32320ft 557kts
21-Feb-21 08:36 40.974758 -111.723625 194 32319ft 556kts
21-Feb-21 08:37 40.824488 -111.771059 194 32320ft 555kts
21-Feb-21 08:38 40.674462 -111.818168 194 32356ft 554kts
21-Feb-21 08:39 40.524887 -111.864910 194 32382ft 554kts
21-Feb-21 08:40 40.375343 -111.911428 194 32400ft 553kts
21-Feb-21 08:41 40.229905 -111.972551 204 32430ft 550kts
21-Feb-21 08:42 40.089532 -112.050855 206 32451ft 550kts
21-Feb-21 08:43 39.949798 -112.131705 206 32457ft 550kts
21-Feb-21 08:44 39.809769 -112.210769 206 32457ft 548kts
21-Feb-21 08:45 39.670215 -112.289619 206 32457ft 549kts
21-Feb-21 08:46 39.530466 -112.368354 206 32472ft 547kts
21-Feb-21 08:47 39.391198 -112.446502 206 32476ft 546kts
21-Feb-21 08:48 39.252395 -112.524061 206 32475ft 544kts
21-Feb-21 08:49 39.114107 -112.601003 206 32476ft 542kts
21-Feb-21 08:50 38.975406 -112.677911 205 32464ft 541kts
21-Feb-21 08:51 38.837216 -112.754284 205 32438ft 539kts
21-Feb-21 08:52 38.700116 -112.829643 205 32439ft 539kts
21-Feb-21 08:53 38.562447 -112.904969 205 32444ft 537kts
21-Feb-21 08:54 38.426100 -112.979258 205 32442ft 537kts
21-Feb-21 08:55 38.290526 -113.056346 209 32434ft 534kts
21-Feb-21 08:56 38.157037 -113.138330 209 32429ft 532kts
21-Feb-21 08:57 38.023981 -113.219807 209 32430ft 530kts
21-Feb-21 08:58 37.893138 -113.299613 209 32394ft 520kts
21-Feb-21 08:59 37.762048 -113.379310 209 32393ft 524kts
21-Feb-21 09:00 37.631104 -113.458568 209 32388ft 518kts
21-Feb-21 09:01 37.503678 -113.535150 209 32418ft 510kts
21-Feb-21 09:02 37.375203 -113.611803 209 32350ft 507kts
21-Feb-21 09:03 37.249586 -113.686880 208 29502ft 504kts
21-Feb-21 09:04 37.124659 -113.761382 208 26647ft 498kts
21-Feb-21 09:05 37.001017 -113.834804 209 24129ft 482kts
21-Feb-21 09:06 36.882797 -113.904754 209 21621ft 460kts
21-Feb-21 09:07 36.770157 -113.971164 209 19121ft 438kts
21-Feb-21 09:08 36.663888 -114.033404 209 17064ft 410kts
21-Feb-21 09:09 36.571807 -114.104730 232 15163ft 374kts
21-Feb-21 09:10 36.512158 -114.209317 241 12326ft 376kts
21-Feb-21 09:11 36.460996 -114.308724 242 11989ft 308kts
21-Feb-21 09:12 36.414877 -114.398799 242 11981ft 310kts
21-Feb-21 09:13 36.368481 -114.488862 242 11981ft 309kts
21-Feb-21 09:14 36.321688 -114.579675 240 10121ft 317kts
21-Feb-21 09:15 36.263208 -114.645133 214 9193ft 268kts
21-Feb-21 09:16 36.206529 -114.703105 221 8046ft 261kts
21-Feb-21 09:17 36.151737 -114.761112 221 7980ft 261kts
21-Feb-21 09:18 36.096673 -114.819473 221 7980ft 260kts
21-Feb-21 09:19 36.041954 -114.877540 221 7981ft 260kts
21-Feb-21 09:20 35.987206 -114.935688 221 7982ft 260kts
21-Feb-21 09:21 35.948980 -115.006756 248 7941ft 236kts
21-Feb-21 09:22 35.924318 -115.077873 248 6960ft 201kts
21-Feb-21 09:23 35.902478 -115.140164 249 6657ft 189kts
21-Feb-21 09:24 35.906489 -115.203000 283 5465ft 178kts
21-Feb-21 09:25 35.931357 -115.249610 356 5450ft 156kts
21-Feb-21 09:26 35.971967 -115.229324 25 4771ft 153kts
21-Feb-21 09:27 36.010666 -115.207222 25 3837ft 153kts
21-Feb-21 09:28 36.049010 -115.185358 26 2906ft 151kts
21-Feb-21 09:29 36.085913 -115.164278 24 2145ft 103kts
21-Feb-21 09:30 36.093382 -115.158682 114 2108ft 1kts
21-Feb-21 09:31 36.092390 -115.156069 116 2102ft 17kts
21-Feb-21 09:32 36.091423 -115.155435 201 2103ft 2kts
21-Feb-21 09:33 36.088093 -115.157205 205 2117ft 26kts
21-Feb-21 09:34 36.083918 -115.156310 155 2124ft 19kts
21-Feb-21 09:35 36.084806 -115.154469 8 2116ft 0kts

Navigation Log

Ident Type
Flight plan parsing failed, navigation log unavailable